sensor_id;sensor_type;location;lat;lon;timestamp;P1;durP1;ratioP1;P2;durP2;ratioP2
33022;SDS011;19390;51.460;5.710;2023-06-26T00:02:16;15.13;;;13.43;;
33022;SDS011;19390;51.460;5.710;2023-06-26T00:04:42;15.15;;;13.40;;
33022;SDS011;19390;51.460;5.710;2023-06-26T00:07:08;14.48;;;12.80;;
33022;SDS011;19390;51.460;5.710;2023-06-26T00:09:34;15.20;;;13.00;;
33022;SDS011;19390;51.460;5.710;2023-06-26T00:11:59;15.90;;;13.63;;
33022;SDS011;19390;51.460;5.710;2023-06-26T00:14:25;15.52;;;13.63;;
33022;SDS011;19390;51.460;5.710;2023-06-26T00:16:51;16.35;;;13.48;;
33022;SDS011;19390;51.460;5.710;2023-06-26T00:19:17;15.82;;;13.30;;
33022;SDS011;19390;51.460;5.710;2023-06-26T00:21:43;16.40;;;14.70;;
33022;SDS011;19390;51.460;5.710;2023-06-26T00:24:13;16.30;;;14.55;;
33022;SDS011;19390;51.460;5.710;2023-06-26T00:26:39;17.98;;;14.75;;
33022;SDS011;19390;51.460;5.710;2023-06-26T00:29:05;16.90;;;14.98;;
33022;SDS011;19390;51.460;5.710;2023-06-26T00:31:30;18.15;;;14.15;;
33022;SDS011;19390;51.460;5.710;2023-06-26T00:33:56;14.68;;;12.80;;
33022;SDS011;19390;51.460;5.710;2023-06-26T00:36:22;16.63;;;11.15;;
33022;SDS011;19390;51.460;5.710;2023-06-26T00:38:51;12.70;;;10.25;;
33022;SDS011;19390;51.460;5.710;2023-06-26T00:41:17;11.05;;;9.23;;
33022;SDS011;19390;51.460;5.710;2023-06-26T00:43:42;11.05;;;9.82;;
33022;SDS011;19390;51.460;5.710;2023-06-26T00:46:08;10.35;;;9.05;;
33022;SDS011;19390;51.460;5.710;2023-06-26T00:48:39;10.13;;;8.95;;
33022;SDS011;19390;51.460;5.710;2023-06-26T00:51:07;11.07;;;9.32;;
33022;SDS011;19390;51.460;5.710;2023-06-26T00:53:33;12.65;;;9.18;;
33022;SDS011;19390;51.460;5.710;2023-06-26T00:56:00;9.98;;;9.00;;
33022;SDS011;19390;51.460;5.710;2023-06-26T00:58:27;10.77;;;9.50;;
33022;SDS011;19390;51.460;5.710;2023-06-26T01:00:52;10.02;;;9.10;;
33022;SDS011;19390;51.460;5.710;2023-06-26T01:03:19;10.63;;;9.52;;
33022;SDS011;19390;51.460;5.710;2023-06-26T01:05:47;10.75;;;9.65;;
33022;SDS011;19390;51.460;5.710;2023-06-26T01:08:14;10.85;;;9.30;;
33022;SDS011;19390;51.460;5.710;2023-06-26T01:10:40;11.35;;;9.93;;
33022;SDS011;19390;51.460;5.710;2023-06-26T01:13:06;11.73;;;9.75;;
33022;SDS011;19390;51.460;5.710;2023-06-26T01:15:33;11.13;;;9.98;;
33022;SDS011;19390;51.460;5.710;2023-06-26T01:17:59;12.05;;;9.98;;
33022;SDS011;19390;51.460;5.710;2023-06-26T01:20:28;11.82;;;9.82;;
33022;SDS011;19390;51.460;5.710;2023-06-26T01:25:41;10.50;;;9.32;;
33022;SDS011;19390;51.460;5.710;2023-06-26T01:28:29;11.27;;;9.43;;
33022;SDS011;19390;51.460;5.710;2023-06-26T01:30:56;10.45;;;9.35;;
33022;SDS011;19390;51.460;5.710;2023-06-26T01:33:23;10.52;;;8.80;;
33022;SDS011;19390;51.460;5.710;2023-06-26T01:35:49;10.40;;;7.60;;
33022;SDS011;19390;51.460;5.710;2023-06-26T01:38:16;7.88;;;6.07;;
33022;SDS011;19390;51.460;5.710;2023-06-26T01:40:42;6.80;;;6.07;;
33022;SDS011;19390;51.460;5.710;2023-06-26T01:43:11;7.45;;;6.18;;
33022;SDS011;19390;51.460;5.710;2023-06-26T01:45:48;7.80;;;6.30;;
33022;SDS011;19390;51.460;5.710;2023-06-26T01:48:16;7.20;;;5.50;;
33022;SDS011;19390;51.460;5.710;2023-06-26T01:50:48;8.93;;;6.25;;
33022;SDS011;19390;51.460;5.710;2023-06-26T01:53:17;11.40;;;6.43;;
33022;SDS011;19390;51.460;5.710;2023-06-26T01:55:59;8.07;;;5.80;;
33022;SDS011;19390;51.460;5.710;2023-06-26T01:58:30;9.65;;;6.25;;
33022;SDS011;19390;51.460;5.710;2023-06-26T02:00:57;7.93;;;5.68;;
33022;SDS011;19390;51.460;5.710;2023-06-26T02:03:24;8.52;;;5.95;;
33022;SDS011;19390;51.460;5.710;2023-06-26T02:05:50;7.10;;;5.55;;
33022;SDS011;19390;51.460;5.710;2023-06-26T02:08:16;10.88;;;6.55;;
33022;SDS011;19390;51.460;5.710;2023-06-26T02:10:41;7.13;;;5.60;;
33022;SDS011;19390;51.460;5.710;2023-06-26T02:13:07;7.03;;;5.25;;
33022;SDS011;19390;51.460;5.710;2023-06-26T02:15:33;7.72;;;5.25;;
33022;SDS011;19390;51.460;5.710;2023-06-26T02:17:58;12.57;;;6.25;;
33022;SDS011;19390;51.460;5.710;2023-06-26T02:20:24;7.07;;;5.63;;
33022;SDS011;19390;51.460;5.710;2023-06-26T02:22:49;9.50;;;5.90;;
33022;SDS011;19390;51.460;5.710;2023-06-26T02:25:15;7.88;;;5.90;;
33022;SDS011;19390;51.460;5.710;2023-06-26T02:27:41;8.75;;;5.55;;
33022;SDS011;19390;51.460;5.710;2023-06-26T02:30:07;10.98;;;6.07;;
33022;SDS011;19390;51.460;5.710;2023-06-26T02:32:34;7.70;;;5.85;;
33022;SDS011;19390;51.460;5.710;2023-06-26T02:34:59;8.85;;;5.82;;
33022;SDS011;19390;51.460;5.710;2023-06-26T02:37:25;8.65;;;5.63;;
33022;SDS011;19390;51.460;5.710;2023-06-26T02:39:51;9.63;;;5.57;;
33022;SDS011;19390;51.460;5.710;2023-06-26T02:42:16;7.90;;;5.57;;
33022;SDS011;19390;51.460;5.710;2023-06-26T02:44:42;7.70;;;5.68;;
33022;SDS011;19390;51.460;5.710;2023-06-26T02:47:07;6.70;;;4.90;;
33022;SDS011;19390;51.460;5.710;2023-06-26T02:49:33;9.68;;;5.18;;
33022;SDS011;19390;51.460;5.710;2023-06-26T02:51:58;9.65;;;5.10;;
33022;SDS011;19390;51.460;5.710;2023-06-26T02:54:24;8.70;;;5.22;;
33022;SDS011;19390;51.460;5.710;2023-06-26T02:56:49;9.32;;;4.75;;
33022;SDS011;19390;51.460;5.710;2023-06-26T02:59:15;7.45;;;4.75;;
33022;SDS011;19390;51.460;5.710;2023-06-26T03:01:41;8.93;;;5.50;;
33022;SDS011;19390;51.460;5.710;2023-06-26T03:04:06;10.65;;;5.50;;
33022;SDS011;19390;51.460;5.710;2023-06-26T03:06:32;9.48;;;4.90;;
33022;SDS011;19390;51.460;5.710;2023-06-26T03:08:57;8.20;;;4.85;;
33022;SDS011;19390;51.460;5.710;2023-06-26T03:11:23;8.48;;;5.15;;
33022;SDS011;19390;51.460;5.710;2023-06-26T03:13:48;8.02;;;5.22;;
33022;SDS011;19390;51.460;5.710;2023-06-26T03:16:14;11.10;;;5.28;;
33022;SDS011;19390;51.460;5.710;2023-06-26T03:18:39;6.32;;;4.90;;
33022;SDS011;19390;51.460;5.710;2023-06-26T03:21:05;6.95;;;5.00;;
33022;SDS011;19390;51.460;5.710;2023-06-26T03:23:31;8.57;;;5.00;;
33022;SDS011;19390;51.460;5.710;2023-06-26T03:25:56;6.85;;;4.68;;
33022;SDS011;19390;51.460;5.710;2023-06-26T03:28:22;8.68;;;4.47;;
33022;SDS011;19390;51.460;5.710;2023-06-26T03:30:47;11.27;;;5.30;;
33022;SDS011;19390;51.460;5.710;2023-06-26T03:33:13;6.90;;;4.18;;
33022;SDS011;19390;51.460;5.710;2023-06-26T03:35:38;10.82;;;5.13;;
33022;SDS011;19390;51.460;5.710;2023-06-26T03:38:04;8.75;;;5.03;;
33022;SDS011;19390;51.460;5.710;2023-06-26T03:40:30;8.18;;;4.55;;
33022;SDS011;19390;51.460;5.710;2023-06-26T03:42:56;9.48;;;4.88;;
33022;SDS011;19390;51.460;5.710;2023-06-26T03:45:22;8.90;;;5.00;;
33022;SDS011;19390;51.460;5.710;2023-06-26T03:47:47;11.07;;;5.28;;
33022;SDS011;19390;51.460;5.710;2023-06-26T03:50:14;12.13;;;5.82;;
33022;SDS011;19390;51.460;5.710;2023-06-26T03:52:41;10.60;;;5.32;;
33022;SDS011;19390;51.460;5.710;2023-06-26T03:55:06;9.25;;;5.03;;
33022;SDS011;19390;51.460;5.710;2023-06-26T03:57:32;10.27;;;4.72;;
33022;SDS011;19390;51.460;5.710;2023-06-26T03:59:58;11.85;;;5.47;;
33022;SDS011;19390;51.460;5.710;2023-06-26T04:02:23;8.18;;;4.93;;
33022;SDS011;19390;51.460;5.710;2023-06-26T04:04:49;9.73;;;5.18;;
33022;SDS011;19390;51.460;5.710;2023-06-26T04:07:15;13.52;;;6.13;;
33022;SDS011;19390;51.460;5.710;2023-06-26T04:09:40;8.15;;;5.00;;
33022;SDS011;19390;51.460;5.710;2023-06-26T04:12:06;10.55;;;5.40;;
33022;SDS011;19390;51.460;5.710;2023-06-26T04:14:31;13.15;;;5.40;;
33022;SDS011;19390;51.460;5.710;2023-06-26T04:16:57;15.63;;;5.32;;
33022;SDS011;19390;51.460;5.710;2023-06-26T04:19:23;10.25;;;5.20;;
33022;SDS011;19390;51.460;5.710;2023-06-26T04:21:48;9.98;;;5.40;;
33022;SDS011;19390;51.460;5.710;2023-06-26T04:24:14;8.98;;;4.88;;
33022;SDS011;19390;51.460;5.710;2023-06-26T04:26:39;11.50;;;5.43;;
33022;SDS011;19390;51.460;5.710;2023-06-26T04:29:06;11.73;;;5.88;;
33022;SDS011;19390;51.460;5.710;2023-06-26T04:31:32;11.05;;;5.25;;
33022;SDS011;19390;51.460;5.710;2023-06-26T04:33:57;9.50;;;5.13;;
33022;SDS011;19390;51.460;5.710;2023-06-26T04:36:24;12.50;;;5.63;;
33022;SDS011;19390;51.460;5.710;2023-06-26T04:38:53;14.80;;;6.30;;
33022;SDS011;19390;51.460;5.710;2023-06-26T04:41:21;15.13;;;6.40;;
33022;SDS011;19390;51.460;5.710;2023-06-26T04:43:47;11.90;;;5.68;;
33022;SDS011;19390;51.460;5.710;2023-06-26T04:46:13;14.43;;;5.68;;
33022;SDS011;19390;51.460;5.710;2023-06-26T04:48:38;16.77;;;6.20;;
33022;SDS011;19390;51.460;5.710;2023-06-26T04:51:04;14.57;;;5.82;;
33022;SDS011;19390;51.460;5.710;2023-06-26T04:53:29;19.77;;;6.28;;
33022;SDS011;19390;51.460;5.710;2023-06-26T04:55:55;12.82;;;5.63;;
33022;SDS011;19390;51.460;5.710;2023-06-26T04:58:21;15.02;;;6.07;;
33022;SDS011;19390;51.460;5.710;2023-06-26T05:00:46;18.90;;;6.35;;
33022;SDS011;19390;51.460;5.710;2023-06-26T05:03:12;17.75;;;6.43;;
33022;SDS011;19390;51.460;5.710;2023-06-26T05:05:39;15.05;;;5.65;;
33022;SDS011;19390;51.460;5.710;2023-06-26T05:08:14;13.10;;;6.10;;
33022;SDS011;19390;51.460;5.710;2023-06-26T05:10:41;18.42;;;5.95;;
33022;SDS011;19390;51.460;5.710;2023-06-26T05:13:07;13.60;;;5.78;;
33022;SDS011;19390;51.460;5.710;2023-06-26T05:15:32;15.48;;;6.25;;
33022;SDS011;19390;51.460;5.710;2023-06-26T05:17:58;17.55;;;6.82;;
33022;SDS011;19390;51.460;5.710;2023-06-26T05:20:24;12.52;;;5.43;;
33022;SDS011;19390;51.460;5.710;2023-06-26T05:22:49;17.67;;;5.55;;
33022;SDS011;19390;51.460;5.710;2023-06-26T05:25:15;14.75;;;5.50;;
33022;SDS011;19390;51.460;5.710;2023-06-26T05:27:43;12.38;;;5.13;;
33022;SDS011;19390;51.460;5.710;2023-06-26T05:30:09;13.80;;;5.40;;
33022;SDS011;19390;51.460;5.710;2023-06-26T05:32:35;13.60;;;5.93;;
33022;SDS011;19390;51.460;5.710;2023-06-26T05:35:02;19.00;;;5.80;;
33022;SDS011;19390;51.460;5.710;2023-06-26T05:37:29;14.20;;;5.80;;
33022;SDS011;19390;51.460;5.710;2023-06-26T05:39:56;14.73;;;6.50;;
33022;SDS011;19390;51.460;5.710;2023-06-26T05:42:22;14.77;;;5.43;;
33022;SDS011;19390;51.460;5.710;2023-06-26T05:44:47;15.07;;;5.70;;
33022;SDS011;19390;51.460;5.710;2023-06-26T05:47:13;18.70;;;5.95;;
33022;SDS011;19390;51.460;5.710;2023-06-26T05:49:38;16.45;;;5.55;;
33022;SDS011;19390;51.460;5.710;2023-06-26T05:52:04;11.82;;;5.10;;
33022;SDS011;19390;51.460;5.710;2023-06-26T05:54:30;12.60;;;5.03;;
33022;SDS011;19390;51.460;5.710;2023-06-26T05:56:56;16.08;;;5.10;;
33022;SDS011;19390;51.460;5.710;2023-06-26T05:59:26;13.00;;;4.47;;
33022;SDS011;19390;51.460;5.710;2023-06-26T06:01:52;13.57;;;5.03;;
33022;SDS011;19390;51.460;5.710;2023-06-26T06:04:18;16.27;;;4.97;;
33022;SDS011;19390;51.460;5.710;2023-06-26T06:06:44;11.32;;;4.15;;
33022;SDS011;19390;51.460;5.710;2023-06-26T06:09:09;9.80;;;3.70;;
33022;SDS011;19390;51.460;5.710;2023-06-26T06:11:35;17.60;;;4.95;;
33022;SDS011;19390;51.460;5.710;2023-06-26T06:14:00;14.38;;;4.70;;
33022;SDS011;19390;51.460;5.710;2023-06-26T06:16:26;11.10;;;4.05;;
33022;SDS011;19390;51.460;5.710;2023-06-26T06:18:54;16.20;;;4.80;;
33022;SDS011;19390;51.460;5.710;2023-06-26T06:21:20;9.60;;;3.58;;
33022;SDS011;19390;51.460;5.710;2023-06-26T06:23:45;13.35;;;4.00;;
33022;SDS011;19390;51.460;5.710;2023-06-26T06:26:11;15.57;;;4.00;;
33022;SDS011;19390;51.460;5.710;2023-06-26T06:28:38;15.70;;;4.10;;
33022;SDS011;19390;51.460;5.710;2023-06-26T06:31:04;14.07;;;3.53;;
33022;SDS011;19390;51.460;5.710;2023-06-26T06:33:30;11.50;;;4.07;;
33022;SDS011;19390;51.460;5.710;2023-06-26T06:35:55;11.50;;;3.92;;
33022;SDS011;19390;51.460;5.710;2023-06-26T06:38:21;10.65;;;4.35;;
33022;SDS011;19390;51.460;5.710;2023-06-26T06:40:47;14.00;;;3.75;;
33022;SDS011;19390;51.460;5.710;2023-06-26T06:43:12;12.40;;;3.65;;
33022;SDS011;19390;51.460;5.710;2023-06-26T06:45:38;10.75;;;3.15;;
33022;SDS011;19390;51.460;5.710;2023-06-26T06:48:04;12.07;;;4.13;;
33022;SDS011;19390;51.460;5.710;2023-06-26T06:50:29;13.40;;;3.33;;
33022;SDS011;19390;51.460;5.710;2023-06-26T06:52:55;11.68;;;3.65;;
33022;SDS011;19390;51.460;5.710;2023-06-26T06:55:21;13.98;;;4.00;;
33022;SDS011;19390;51.460;5.710;2023-06-26T06:57:47;13.55;;;3.25;;
33022;SDS011;19390;51.460;5.710;2023-06-26T07:00:12;16.38;;;3.65;;
33022;SDS011;19390;51.460;5.710;2023-06-26T07:02:42;10.63;;;3.40;;
33022;SDS011;19390;51.460;5.710;2023-06-26T07:05:09;8.80;;;3.00;;
33022;SDS011;19390;51.460;5.710;2023-06-26T07:07:35;8.02;;;2.83;;
33022;SDS011;19390;51.460;5.710;2023-06-26T07:10:13;12.60;;;3.63;;
33022;SDS011;19390;51.460;5.710;2023-06-26T07:12:39;9.82;;;3.25;;
33022;SDS011;19390;51.460;5.710;2023-06-26T07:15:05;11.65;;;3.22;;
33022;SDS011;19390;51.460;5.710;2023-06-26T07:17:31;10.38;;;2.83;;
33022;SDS011;19390;51.460;5.710;2023-06-26T07:19:59;10.85;;;3.03;;
33022;SDS011;19390;51.460;5.710;2023-06-26T07:22:25;9.27;;;3.15;;
33022;SDS011;19390;51.460;5.710;2023-06-26T07:24:51;8.35;;;2.75;;
33022;SDS011;19390;51.460;5.710;2023-06-26T07:27:17;12.80;;;3.10;;
33022;SDS011;19390;51.460;5.710;2023-06-26T07:29:44;8.02;;;2.92;;
33022;SDS011;19390;51.460;5.710;2023-06-26T07:32:10;9.68;;;2.60;;
33022;SDS011;19390;51.460;5.710;2023-06-26T07:34:35;8.35;;;2.88;;
33022;SDS011;19390;51.460;5.710;2023-06-26T07:37:01;11.07;;;3.22;;
33022;SDS011;19390;51.460;5.710;2023-06-26T07:39:27;8.63;;;3.10;;
33022;SDS011;19390;51.460;5.710;2023-06-26T07:41:52;8.38;;;2.70;;
33022;SDS011;19390;51.460;5.710;2023-06-26T07:44:18;8.27;;;2.55;;
33022;SDS011;19390;51.460;5.710;2023-06-26T07:46:44;10.60;;;3.05;;
33022;SDS011;19390;51.460;5.710;2023-06-26T07:49:13;9.65;;;2.78;;
33022;SDS011;19390;51.460;5.710;2023-06-26T07:51:39;8.63;;;2.97;;
33022;SDS011;19390;51.460;5.710;2023-06-26T07:54:05;7.95;;;3.25;;
33022;SDS011;19390;51.460;5.710;2023-06-26T07:56:30;9.45;;;3.28;;
33022;SDS011;19390;51.460;5.710;2023-06-26T07:58:56;6.45;;;2.85;;
33022;SDS011;19390;51.460;5.710;2023-06-26T08:01:26;8.02;;;3.13;;
33022;SDS011;19390;51.460;5.710;2023-06-26T08:03:51;7.18;;;2.78;;
33022;SDS011;19390;51.460;5.710;2023-06-26T08:06:17;9.85;;;2.97;;
33022;SDS011;19390;51.460;5.710;2023-06-26T08:08:43;10.00;;;3.60;;
33022;SDS011;19390;51.460;5.710;2023-06-26T08:11:09;10.18;;;3.55;;
33022;SDS011;19390;51.460;5.710;2023-06-26T08:13:34;8.68;;;3.08;;
33022;SDS011;19390;51.460;5.710;2023-06-26T08:16:00;8.85;;;3.05;;
33022;SDS011;19390;51.460;5.710;2023-06-26T08:18:26;8.15;;;2.83;;
33022;SDS011;19390;51.460;5.710;2023-06-26T08:20:51;8.85;;;2.63;;
33022;SDS011;19390;51.460;5.710;2023-06-26T08:23:17;5.78;;;2.83;;
33022;SDS011;19390;51.460;5.710;2023-06-26T08:25:42;10.60;;;2.75;;
33022;SDS011;19390;51.460;5.710;2023-06-26T08:28:08;9.68;;;3.03;;
33022;SDS011;19390;51.460;5.710;2023-06-26T08:30:34;10.93;;;3.08;;
33022;SDS011;19390;51.460;5.710;2023-06-26T08:32:59;8.35;;;2.80;;
33022;SDS011;19390;51.460;5.710;2023-06-26T08:35:25;6.28;;;2.25;;
33022;SDS011;19390;51.460;5.710;2023-06-26T08:37:50;7.55;;;2.47;;
33022;SDS011;19390;51.460;5.710;2023-06-26T08:40:17;6.05;;;2.30;;
33022;SDS011;19390;51.460;5.710;2023-06-26T08:42:45;4.30;;;1.70;;
33022;SDS011;19390;51.460;5.710;2023-06-26T08:45:11;7.45;;;2.03;;
33022;SDS011;19390;51.460;5.710;2023-06-26T08:47:37;8.05;;;1.92;;
33022;SDS011;19390;51.460;5.710;2023-06-26T08:52:36;6.38;;;1.50;;
33022;SDS011;19390;51.460;5.710;2023-06-26T08:55:10;8.02;;;1.67;;
33022;SDS011;19390;51.460;5.710;2023-06-26T08:57:39;5.75;;;1.33;;
33022;SDS011;19390;51.460;5.710;2023-06-26T09:00:05;3.95;;;1.02;;
33022;SDS011;19390;51.460;5.710;2023-06-26T09:02:33;3.70;;;1.10;;
33022;SDS011;19390;51.460;5.710;2023-06-26T09:05:01;5.40;;;1.20;;
33022;SDS011;19390;51.460;5.710;2023-06-26T09:07:27;3.40;;;1.27;;
33022;SDS011;19390;51.460;5.710;2023-06-26T09:09:53;3.13;;;1.10;;
33022;SDS011;19390;51.460;5.710;2023-06-26T09:12:19;5.32;;;1.20;;
33022;SDS011;19390;51.460;5.710;2023-06-26T09:14:45;6.97;;;1.10;;
33022;SDS011;19390;51.460;5.710;2023-06-26T09:17:12;8.40;;;1.02;;
33022;SDS011;19390;51.460;5.710;2023-06-26T09:19:38;3.47;;;1.08;;
33022;SDS011;19390;51.460;5.710;2023-06-26T09:22:04;4.20;;;1.33;;
33022;SDS011;19390;51.460;5.710;2023-06-26T09:24:35;5.93;;;1.20;;
33022;SDS011;19390;51.460;5.710;2023-06-26T09:27:01;3.53;;;1.23;;
33022;SDS011;19390;51.460;5.710;2023-06-26T09:29:27;3.15;;;1.20;;
33022;SDS011;19390;51.460;5.710;2023-06-26T09:31:54;5.45;;;1.35;;
33022;SDS011;19390;51.460;5.710;2023-06-26T09:34:21;4.78;;;1.50;;
33022;SDS011;19390;51.460;5.710;2023-06-26T09:36:47;3.80;;;1.15;;
33022;SDS011;19390;51.460;5.710;2023-06-26T09:39:14;4.65;;;1.20;;
33022;SDS011;19390;51.460;5.710;2023-06-26T09:41:43;5.13;;;1.00;;
33022;SDS011;19390;51.460;5.710;2023-06-26T09:44:10;4.55;;;1.10;;
33022;SDS011;19390;51.460;5.710;2023-06-26T09:46:37;3.25;;;1.02;;
33022;SDS011;19390;51.460;5.710;2023-06-26T09:49:05;6.00;;;1.45;;
33022;SDS011;19390;51.460;5.710;2023-06-26T09:51:32;3.63;;;0.88;;
33022;SDS011;19390;51.460;5.710;2023-06-26T09:54:00;3.55;;;1.02;;
33022;SDS011;19390;51.460;5.710;2023-06-26T09:56:27;4.97;;;1.45;;
33022;SDS011;19390;51.460;5.710;2023-06-26T09:58:55;6.10;;;2.97;;
33022;SDS011;19390;51.460;5.710;2023-06-26T10:01:22;7.22;;;1.25;;
33022;SDS011;19390;51.460;5.710;2023-06-26T10:03:51;4.20;;;1.70;;
33022;SDS011;19390;51.460;5.710;2023-06-26T10:06:22;7.10;;;2.08;;
33022;SDS011;19390;51.460;5.710;2023-06-26T10:09:00;6.32;;;2.60;;
33022;SDS011;19390;51.460;5.710;2023-06-26T10:11:39;3.53;;;1.20;;
33022;SDS011;19390;51.460;5.710;2023-06-26T10:14:11;3.30;;;0.90;;
33022;SDS011;19390;51.460;5.710;2023-06-26T10:16:37;2.35;;;0.90;;
33022;SDS011;19390;51.460;5.710;2023-06-26T10:19:07;4.45;;;1.30;;
33022;SDS011;19390;51.460;5.710;2023-06-26T10:21:35;6.15;;;1.00;;
33022;SDS011;19390;51.460;5.710;2023-06-26T10:24:03;2.72;;;0.80;;
33022;SDS011;19390;51.460;5.710;2023-06-26T10:26:31;2.47;;;0.80;;
33022;SDS011;19390;51.460;5.710;2023-06-26T10:29:01;8.55;;;1.20;;
33022;SDS011;19390;51.460;5.710;2023-06-26T10:31:28;2.40;;;0.90;;
33022;SDS011;19390;51.460;5.710;2023-06-26T10:33:54;5.47;;;1.13;;
33022;SDS011;19390;51.460;5.710;2023-06-26T10:36:26;5.28;;;0.95;;
33022;SDS011;19390;51.460;5.710;2023-06-26T10:39:03;4.18;;;0.70;;
33022;SDS011;19390;51.460;5.710;2023-06-26T10:41:39;3.38;;;0.98;;
33022;SDS011;19390;51.460;5.710;2023-06-26T10:44:09;5.30;;;0.80;;
33022;SDS011;19390;51.460;5.710;2023-06-26T10:46:51;4.28;;;0.80;;
33022;SDS011;19390;51.460;5.710;2023-06-26T10:49:21;2.88;;;0.70;;
33022;SDS011;19390;51.460;5.710;2023-06-26T10:51:51;4.70;;;0.50;;
33022;SDS011;19390;51.460;5.710;2023-06-26T10:54:17;4.13;;;1.02;;
33022;SDS011;19390;51.460;5.710;2023-06-26T10:56:47;2.75;;;0.80;;
33022;SDS011;19390;51.460;5.710;2023-06-26T10:59:18;1.48;;;0.80;;
33022;SDS011;19390;51.460;5.710;2023-06-26T11:01:45;3.63;;;0.80;;
33022;SDS011;19390;51.460;5.710;2023-06-26T11:04:18;2.60;;;0.95;;
33022;SDS011;19390;51.460;5.710;2023-06-26T11:07:20;4.10;;;0.90;;
33022;SDS011;19390;51.460;5.710;2023-06-26T11:09:54;5.28;;;0.90;;
33022;SDS011;19390;51.460;5.710;2023-06-26T11:15:12;2.20;;;0.77;;
33022;SDS011;19390;51.460;5.710;2023-06-26T11:17:39;4.22;;;1.02;;
33022;SDS011;19390;51.460;5.710;2023-06-26T11:20:07;5.32;;;0.98;;
33022;SDS011;19390;51.460;5.710;2023-06-26T11:22:34;4.75;;;1.15;;
33022;SDS011;19390;51.460;5.710;2023-06-26T11:25:02;1.90;;;0.68;;
33022;SDS011;19390;51.460;5.710;2023-06-26T11:27:37;4.30;;;1.10;;
33022;SDS011;19390;51.460;5.710;2023-06-26T11:30:04;3.50;;;0.75;;
33022;SDS011;19390;51.460;5.710;2023-06-26T11:32:34;4.25;;;0.80;;
33022;SDS011;19390;51.460;5.710;2023-06-26T11:35:03;5.47;;;1.15;;
33022;SDS011;19390;51.460;5.710;2023-06-26T11:37:30;3.42;;;0.70;;
33022;SDS011;19390;51.460;5.710;2023-06-26T11:39:56;7.28;;;1.02;;
33022;SDS011;19390;51.460;5.710;2023-06-26T11:42:23;4.30;;;0.90;;
33022;SDS011;19390;51.460;5.710;2023-06-26T11:44:49;3.17;;;0.95;;
33022;SDS011;19390;51.460;5.710;2023-06-26T11:47:15;2.35;;;1.10;;
33022;SDS011;19390;51.460;5.710;2023-06-26T11:49:43;4.65;;;0.93;;
33022;SDS011;19390;51.460;5.710;2023-06-26T11:52:09;1.27;;;0.75;;
33022;SDS011;19390;51.460;5.710;2023-06-26T11:54:35;2.08;;;0.88;;
33022;SDS011;19390;51.460;5.710;2023-06-26T11:57:00;3.00;;;0.90;;
33022;SDS011;19390;51.460;5.710;2023-06-26T11:59:36;2.03;;;0.68;;
33022;SDS011;19390;51.460;5.710;2023-06-26T12:02:05;1.75;;;0.70;;
33022;SDS011;19390;51.460;5.710;2023-06-26T12:04:39;1.90;;;0.70;;
33022;SDS011;19390;51.460;5.710;2023-06-26T12:07:07;3.08;;;0.70;;
33022;SDS011;19390;51.460;5.710;2023-06-26T12:09:41;2.72;;;0.90;;
33022;SDS011;19390;51.460;5.710;2023-06-26T12:12:08;1.20;;;0.70;;
33022;SDS011;19390;51.460;5.710;2023-06-26T12:14:35;1.83;;;0.75;;
33022;SDS011;19390;51.460;5.710;2023-06-26T12:17:05;2.47;;;0.80;;
33022;SDS011;19390;51.460;5.710;2023-06-26T12:19:38;3.05;;;0.82;;
33022;SDS011;19390;51.460;5.710;2023-06-26T12:24:36;1.55;;;0.75;;
33022;SDS011;19390;51.460;5.710;2023-06-26T12:27:07;3.05;;;0.70;;
33022;SDS011;19390;51.460;5.710;2023-06-26T12:29:36;3.38;;;0.60;;
33022;SDS011;19390;51.460;5.710;2023-06-26T12:32:02;1.75;;;0.88;;
33022;SDS011;19390;51.460;5.710;2023-06-26T12:34:31;3.80;;;0.60;;
33022;SDS011;19390;51.460;5.710;2023-06-26T12:37:10;3.90;;;0.85;;
33022;SDS011;19390;51.460;5.710;2023-06-26T12:39:46;2.30;;;0.70;;
33022;SDS011;19390;51.460;5.710;2023-06-26T12:42:15;2.08;;;0.60;;
33022;SDS011;19390;51.460;5.710;2023-06-26T12:44:43;2.58;;;0.93;;
33022;SDS011;19390;51.460;5.710;2023-06-26T12:47:09;2.25;;;0.80;;
33022;SDS011;19390;51.460;5.710;2023-06-26T12:49:38;3.05;;;0.80;;
33022;SDS011;19390;51.460;5.710;2023-06-26T12:52:07;6.63;;;0.93;;
33022;SDS011;19390;51.460;5.710;2023-06-26T12:54:35;2.95;;;0.85;;
33022;SDS011;19390;51.460;5.710;2023-06-26T12:57:01;2.97;;;1.10;;
33022;SDS011;19390;51.460;5.710;2023-06-26T12:59:29;3.42;;;0.90;;
33022;SDS011;19390;51.460;5.710;2023-06-26T13:01:55;1.70;;;0.65;;
33022;SDS011;19390;51.460;5.710;2023-06-26T13:04:21;3.58;;;0.90;;
33022;SDS011;19390;51.460;5.710;2023-06-26T13:06:46;3.67;;;1.10;;
33022;SDS011;19390;51.460;5.710;2023-06-26T13:09:12;3.60;;;1.10;;
33022;SDS011;19390;51.460;5.710;2023-06-26T13:11:38;3.08;;;1.00;;
33022;SDS011;19390;51.460;5.710;2023-06-26T13:14:03;1.52;;;0.80;;
33022;SDS011;19390;51.460;5.710;2023-06-26T13:16:29;4.50;;;0.90;;
33022;SDS011;19390;51.460;5.710;2023-06-26T13:18:55;2.92;;;0.93;;
33022;SDS011;19390;51.460;5.710;2023-06-26T13:21:22;1.63;;;0.80;;
33022;SDS011;19390;51.460;5.710;2023-06-26T13:23:48;1.30;;;0.70;;
33022;SDS011;19390;51.460;5.710;2023-06-26T13:26:14;2.92;;;0.90;;
33022;SDS011;19390;51.460;5.710;2023-06-26T13:28:39;2.38;;;0.75;;
33022;SDS011;19390;51.460;5.710;2023-06-26T13:31:05;2.22;;;0.80;;
33022;SDS011;19390;51.460;5.710;2023-06-26T13:33:31;1.65;;;0.75;;
33022;SDS011;19390;51.460;5.710;2023-06-26T13:35:57;3.88;;;0.93;;
33022;SDS011;19390;51.460;5.710;2023-06-26T13:38:23;3.10;;;0.90;;
33022;SDS011;19390;51.460;5.710;2023-06-26T13:40:58;4.10;;;0.80;;
33022;SDS011;19390;51.460;5.710;2023-06-26T13:43:25;2.08;;;1.05;;
33022;SDS011;19390;51.460;5.710;2023-06-26T13:45:53;2.50;;;0.85;;
33022;SDS011;19390;51.460;5.710;2023-06-26T13:48:19;5.03;;;1.10;;
33022;SDS011;19390;51.460;5.710;2023-06-26T13:50:45;3.78;;;0.80;;
33022;SDS011;19390;51.460;5.710;2023-06-26T13:53:11;3.97;;;0.77;;
33022;SDS011;19390;51.460;5.710;2023-06-26T13:55:37;4.30;;;0.93;;
33022;SDS011;19390;51.460;5.710;2023-06-26T13:58:04;4.22;;;0.93;;
33022;SDS011;19390;51.460;5.710;2023-06-26T14:00:30;2.00;;;0.88;;
33022;SDS011;19390;51.460;5.710;2023-06-26T14:02:59;0.85;;;0.70;;
33022;SDS011;19390;51.460;5.710;2023-06-26T14:05:25;3.25;;;0.60;;
33022;SDS011;19390;51.460;5.710;2023-06-26T14:07:51;8.10;;;0.63;;
33022;SDS011;19390;51.460;5.710;2023-06-26T14:10:18;2.25;;;0.90;;
33022;SDS011;19390;51.460;5.710;2023-06-26T14:12:44;1.25;;;0.65;;
33022;SDS011;19390;51.460;5.710;2023-06-26T14:15:10;1.35;;;0.60;;
33022;SDS011;19390;51.460;5.710;2023-06-26T14:17:35;3.25;;;1.00;;
33022;SDS011;19390;51.460;5.710;2023-06-26T14:20:02;1.77;;;0.77;;
33022;SDS011;19390;51.460;5.710;2023-06-26T14:22:30;4.00;;;0.90;;
33022;SDS011;19390;51.460;5.710;2023-06-26T14:24:55;2.92;;;0.70;;
33022;SDS011;19390;51.460;5.710;2023-06-26T14:27:21;2.15;;;0.77;;
33022;SDS011;19390;51.460;5.710;2023-06-26T14:29:47;1.75;;;0.98;;
33022;SDS011;19390;51.460;5.710;2023-06-26T14:32:12;2.97;;;0.80;;
33022;SDS011;19390;51.460;5.710;2023-06-26T14:34:39;4.45;;;1.00;;
33022;SDS011;19390;51.460;5.710;2023-06-26T14:37:05;2.85;;;1.10;;
33022;SDS011;19390;51.460;5.710;2023-06-26T14:39:30;3.00;;;0.93;;
33022;SDS011;19390;51.460;5.710;2023-06-26T14:41:56;2.20;;;0.57;;
33022;SDS011;19390;51.460;5.710;2023-06-26T14:44:21;6.57;;;0.85;;
33022;SDS011;19390;51.460;5.710;2023-06-26T14:46:47;2.50;;;0.82;;
33022;SDS011;19390;51.460;5.710;2023-06-26T14:49:12;1.92;;;0.60;;
33022;SDS011;19390;51.460;5.710;2023-06-26T14:51:38;2.60;;;0.90;;
33022;SDS011;19390;51.460;5.710;2023-06-26T14:54:05;2.08;;;0.98;;